Portada
METAR-TAF:

METAR-TAF

Aeropuertos :

Bowman Field

Louisville, Kentucky, Estados Unidos

latitud: 38-13-40N, longitud: 085-39-49W, altitud: 166 m

Observación

El informe se hizo hace 58 minutos, a las 19:53 UTC
Viento 3 kt del suroeste
Temperatura 31°C
Humedad 49%
Presión 1024 hPa
Visibilidad: 16.1 km
Nubes dispersas a una altura de 6500 ft

METAR: KLOU 191953Z 22003KT 10SM SCT065 31/19 A3024 RMK AO2 SLP234 T03060189

Hora: 16:51 (20:51 UTC)


TAF: falta

Observaciones y pronósticos meteorológicos de más de 4000 aeropuertos (mensajes METAR y TAF).

Los puntos amarillos y rojos representan las estaciones disponibles.

Ponga el ratón en el punto deseado para ver el nombre de la estación.

Haga clic para ver las observaciones y los pronósticos meteorológicos.

Para cambiar el mapa : haga clic en los botones verdes con una cruz de color negro para hacer un zoom, en el botón verde con un guión para alejar o en las flechas verdes para mapas adyacentes.


METAR-TAF: